Time;durP1;ratioP1;P1;durP2;ratioP2;P2;SDS_P1;SDS_P2;PMS_P1;PMS_P2;Temp;Humidity;BMP_temperature;BMP_pressure;BME280_temperature;BME280_humidity;BME280_pressure;Samples;Min_cycle;Max_cycle;Signal;HPM_P1;HPM_P2
2023/07/20 00:00:37;;;;;;;7.85;4.50;;;;;;;;;;4992670;28;99390;-83
2023/07/20 00:03:16;;;;;;;8.88;4.60;;;;;;;;;;5004754;28;98543;-80
2023/07/20 00:05:43;;;;;;;7.00;4.57;;;;;;;;;;4996463;28;98827;-78
2023/07/20 00:08:10;;;;;;;7.85;4.80;;;;;;;;;;5012235;28;98575;-76
2023/07/20 00:10:36;;;;;;;7.00;3.97;;;;;;;;;;5004851;28;98747;-76
2023/07/20 00:13:03;;;;;;;10.63;4.72;;;;;;;;;;4998301;28;100272;-75
2023/07/20 00:15:29;;;;;;;10.40;5.07;;;;;;;;;;4998476;28;99751;-75
2023/07/20 00:17:55;;;;;;;10.63;4.68;;;;;;;;;;5006707;28;100245;-75
2023/07/20 00:20:23;;;;;;;7.43;4.65;;;;;;;;;;5005146;28;100930;-75
2023/07/20 00:22:51;;;;;;;8.75;4.15;;;;;;;;;;5008230;28;98936;-76
2023/07/20 00:25:18;;;;;;;7.22;4.40;;;;;;;;;;5010142;28;99095;-76
2023/07/20 00:27:44;;;;;;;7.47;4.22;;;;;;;;;;5010164;28;99550;-76
2023/07/20 00:30:11;;;;;;;7.53;3.83;;;;;;;;;;5009815;28;99377;-75
2023/07/20 00:32:37;;;;;;;5.10;3.65;;;;;;;;;;5004694;28;99075;-76
2023/07/20 00:35:04;;;;;;;7.95;3.72;;;;;;;;;;4991905;28;98666;-79
2023/07/20 00:37:30;;;;;;;4.95;3.00;;;;;;;;;;5010724;28;99812;-79
2023/07/20 00:39:57;;;;;;;4.22;3.10;;;;;;;;;;5010991;28;100292;-78
2023/07/20 00:42:23;;;;;;;5.47;2.53;;;;;;;;;;5012072;28;98572;-79
2023/07/20 00:44:50;;;;;;;2.50;2.20;;;;;;;;;;5009359;28;99172;-79
2023/07/20 00:47:16;;;;;;;4.93;2.50;;;;;;;;;;4991615;28;99550;-79
2023/07/20 00:49:43;;;;;;;4.22;2.40;;;;;;;;;;4991719;28;98781;-79
2023/07/20 00:52:10;;;;;;;2.40;2.05;;;;;;;;;;4992675;28;99217;-78
2023/07/20 00:54:37;;;;;;;2.45;2.10;;;;;;;;;;4994598;28;99703;-78
2023/07/20 00:57:04;;;;;;;3.08;1.92;;;;;;;;;;4992310;28;99366;-78
2023/07/20 00:59:30;;;;;;;3.42;1.70;;;;;;;;;;4995705;28;102754;-79
2023/07/20 01:01:57;;;;;;;5.38;1.67;;;;;;;;;;5002244;28;98647;-79
2023/07/20 01:04:23;;;;;;;3.67;1.77;;;;;;;;;;5000555;28;99221;-78
2023/07/20 01:06:55;;;;;;;1.73;1.60;;;;;;;;;;5005955;28;99257;-78
2023/07/20 01:09:28;;;;;;;1.70;1.42;;;;;;;;;;5002178;28;100026;-78
2023/07/20 01:11:54;;;;;;;2.25;1.52;;;;;;;;;;4993235;28;99474;-82
2023/07/20 01:14:21;;;;;;;2.13;1.45;;;;;;;;;;5006009;28;99500;-79
2023/07/20 01:16:49;;;;;;;2.05;1.50;;;;;;;;;;5001973;28;99087;-77
2023/07/20 01:19:16;;;;;;;1.40;1.13;;;;;;;;;;4999798;28;100024;-77
2023/07/20 01:21:49;;;;;;;2.33;1.70;;;;;;;;;;5001169;28;99711;-77
2023/07/20 01:24:34;;;;;;;1.98;1.60;;;;;;;;;;4993618;28;98634;-76
2023/07/20 01:27:06;;;;;;;1.60;1.50;;;;;;;;;;5003456;28;99705;-78
2023/07/20 01:29:44;;;;;;;1.75;1.40;;;;;;;;;;5007629;28;99377;-77
2023/07/20 01:32:11;;;;;;;2.80;1.55;;;;;;;;;;4991022;28;100205;-78
2023/07/20 01:34:39;;;;;;;4.05;1.60;;;;;;;;;;4997875;28;99734;-77
2023/07/20 01:37:06;;;;;;;1.30;1.20;;;;;;;;;;4999951;28;98545;-81
2023/07/20 01:39:35;;;;;;;2.75;1.45;;;;;;;;;;4994679;28;99235;-79
2023/07/20 01:42:01;;;;;;;4.22;1.33;;;;;;;;;;5004137;28;98545;-79
2023/07/20 01:44:28;;;;;;;1.35;1.30;;;;;;;;;;5003964;28;100695;-77
2023/07/20 01:46:55;;;;;;;1.60;1.50;;;;;;;;;;4990708;28;98764;-77
2023/07/20 01:49:21;;;;;;;1.85;1.60;;;;;;;;;;4993165;28;98705;-77
2023/07/20 01:51:48;;;;;;;1.83;1.35;;;;;;;;;;5002602;28;99274;-77
2023/07/20 01:54:14;;;;;;;2.95;1.88;;;;;;;;;;4992306;28;100300;-77
2023/07/20 01:56:41;;;;;;;1.50;1.40;;;;;;;;;;4995166;28;98512;-77
2023/07/20 01:59:07;;;;;;;2.13;1.60;;;;;;;;;;4990143;28;99164;-77
2023/07/20 02:01:33;;;;;;;4.45;2.28;;;;;;;;;;5009455;28;100019;-77
2023/07/20 02:04:00;;;;;;;1.73;1.60;;;;;;;;;;5008350;28;99098;-79
2023/07/20 02:06:26;;;;;;;1.58;1.48;;;;;;;;;;4997402;28;99485;-78
2023/07/20 02:08:53;;;;;;;1.90;1.73;;;;;;;;;;5005790;28;98588;-78
2023/07/20 02:11:19;;;;;;;1.70;1.60;;;;;;;;;;5009020;28;99412;-83
2023/07/20 02:13:46;;;;;;;2.75;1.85;;;;;;;;;;4991879;28;99791;-81
2023/07/20 02:16:12;;;;;;;2.55;1.80;;;;;;;;;;4994311;28;98882;-81
2023/07/20 02:18:39;;;;;;;2.90;1.85;;;;;;;;;;5001568;28;99454;-87
2023/07/20 02:21:05;;;;;;;7.22;1.83;;;;;;;;;;5006389;28;99449;-87
2023/07/20 02:23:32;;;;;;;5.20;1.70;;;;;;;;;;5007442;28;98844;-88
2023/07/20 02:25:59;;;;;;;2.60;1.55;;;;;;;;;;5006949;28;100575;-86
2023/07/20 02:28:25;;;;;;;2.35;1.77;;;;;;;;;;5010062;28;98518;-82
2023/07/20 02:30:52;;;;;;;2.70;1.77;;;;;;;;;;5007014;28;99329;-79
2023/07/20 02:33:21;;;;;;;1.77;1.43;;;;;;;;;;4999696;28;99899;-80
2023/07/20 02:35:48;;;;;;;2.17;1.50;;;;;;;;;;5009907;28;97780;-79
2023/07/20 02:38:14;;;;;;;1.98;1.60;;;;;;;;;;5001354;28;98605;-79
2023/07/20 02:40:41;;;;;;;1.50;1.40;;;;;;;;;;5005881;28;100606;-77
2023/07/20 02:43:08;;;;;;;1.50;1.40;;;;;;;;;;5001364;28;99268;-77
2023/07/20 02:45:35;;;;;;;2.30;1.50;;;;;;;;;;4989496;28;99887;-77
2023/07/20 02:48:02;;;;;;;2.75;1.60;;;;;;;;;;5005743;28;98563;-77
2023/07/20 02:50:28;;;;;;;1.55;1.45;;;;;;;;;;5009801;28;99084;-77
2023/07/20 02:52:55;;;;;;;1.90;1.48;;;;;;;;;;5004773;28;99612;-77
2023/07/20 02:55:21;;;;;;;1.60;1.50;;;;;;;;;;5003809;28;98559;-78
2023/07/20 02:57:47;;;;;;;2.80;1.80;;;;;;;;;;4999856;28;99161;-80
2023/07/20 03:00:15;;;;;;;4.60;1.50;;;;;;;;;;5005472;28;99062;-80
2023/07/20 03:02:42;;;;;;;1.83;1.73;;;;;;;;;;5008370;28;98568;-80
2023/07/20 03:05:08;;;;;;;2.42;1.73;;;;;;;;;;5000839;28;99227;-74
2023/07/20 03:07:35;;;;;;;1.67;1.58;;;;;;;;;;5006665;28;99250;-75
2023/07/20 03:10:02;;;;;;;3.08;1.60;;;;;;;;;;5001733;28;99856;-75
2023/07/20 03:12:29;;;;;;;1.55;1.45;;;;;;;;;;4989801;28;99583;-75
2023/07/20 03:14:56;;;;;;;3.08;1.70;;;;;;;;;;4997190;28;98695;-75
2023/07/20 03:17:23;;;;;;;1.95;1.75;;;;;;;;;;5004848;28;99876;-75
2023/07/20 03:19:49;;;;;;;7.15;1.70;;;;;;;;;;4994109;28;99709;-75
2023/07/20 03:22:16;;;;;;;1.73;1.45;;;;;;;;;;4990001;28;98632;-75
2023/07/20 03:24:42;;;;;;;2.10;1.70;;;;;;;;;;4989440;28;100228;-77
2023/07/20 03:27:08;;;;;;;2.45;1.52;;;;;;;;;;5005397;28;99732;-75
2023/07/20 03:29:35;;;;;;;2.42;1.48;;;;;;;;;;4988396;28;99232;-75
2023/07/20 03:32:01;;;;;;;2.28;1.80;;;;;;;;;;4990589;28;101027;-78
2023/07/20 03:34:27;;;;;;;2.40;1.65;;;;;;;;;;4994527;28;98645;-77
2023/07/20 03:36:54;;;;;;;1.70;1.60;;;;;;;;;;4993806;28;98968;-77
2023/07/20 03:39:22;;;;;;;2.00;1.80;;;;;;;;;;5005515;28;101996;-77
2023/07/20 03:41:48;;;;;;;1.63;1.45;;;;;;;;;;5005299;28;99213;-78
2023/07/20 03:44:14;;;;;;;1.73;1.40;;;;;;;;;;5001021;28;100445;-77
2023/07/20 03:46:41;;;;;;;2.05;1.85;;;;;;;;;;4988617;28;99551;-75
2023/07/20 03:49:08;;;;;;;2.30;1.88;;;;;;;;;;5010092;28;97940;-74
2023/07/20 03:51:35;;;;;;;3.67;2.05;;;;;;;;;;5002358;28;100463;-74
2023/07/20 03:54:02;;;;;;;2.20;2.00;;;;;;;;;;5001712;28;100287;-74
2023/07/20 03:56:28;;;;;;;2.22;1.98;;;;;;;;;;4991986;28;99334;-73
2023/07/20 03:58:55;;;;;;;1.67;1.58;;;;;;;;;;4989531;28;100595;-74
2023/07/20 04:01:21;;;;;;;2.20;2.00;;;;;;;;;;4989833;28;98656;-74
2023/07/20 04:03:47;;;;;;;5.63;2.15;;;;;;;;;;4994216;28;99200;-74
2023/07/20 04:06:17;;;;;;;3.25;2.03;;;;;;;;;;4988423;28;99829;-74
2023/07/20 04:08:44;;;;;;;2.75;2.25;;;;;;;;;;4998777;28;98652;-74
2023/07/20 04:11:10;;;;;;;2.28;2.13;;;;;;;;;;5002827;28;99271;-74
2023/07/20 04:13:37;;;;;;;2.10;2.00;;;;;;;;;;4997216;28;97942;-74
2023/07/20 04:16:03;;;;;;;2.50;2.13;;;;;;;;;;4993344;28;98842;-73
2023/07/20 04:18:29;;;;;;;4.82;2.50;;;;;;;;;;5008345;28;99695;-77
2023/07/20 04:20:56;;;;;;;3.38;2.05;;;;;;;;;;5008620;28;99344;-77
2023/07/20 04:23:24;;;;;;;2.92;2.28;;;;;;;;;;5007256;28;99844;-85
2023/07/20 04:25:51;;;;;;;2.88;2.55;;;;;;;;;;5009655;28;100318;-79
2023/07/20 04:28:17;;;;;;;2.88;2.67;;;;;;;;;;4996555;28;98484;-83
2023/07/20 04:30:44;;;;;;;3.97;2.65;;;;;;;;;;5006949;28;100857;-82
2023/07/20 04:33:10;;;;;;;5.10;2.50;;;;;;;;;;5008081;28;100940;-82
2023/07/20 04:35:47;;;;;;;2.15;1.95;;;;;;;;;;5002842;28;100189;-82
2023/07/20 04:38:17;;;;;;;2.55;2.03;;;;;;;;;;5009095;28;99780;-77
2023/07/20 04:40:45;;;;;;;2.50;2.30;;;;;;;;;;4998051;28;99039;-79
2023/07/20 04:43:12;;;;;;;3.60;2.63;;;;;;;;;;5002249;28;100020;-78
2023/07/20 04:45:40;;;;;;;4.80;2.50;;;;;;;;;;5002956;28;102289;-79
2023/07/20 04:48:10;;;;;;;3.50;2.60;;;;;;;;;;5009571;28;98713;-79
2023/07/20 04:50:36;;;;;;;3.50;2.85;;;;;;;;;;4990238;28;100702;-79
2023/07/20 04:53:03;;;;;;;6.28;3.20;;;;;;;;;;5004064;28;100695;-79
2023/07/20 04:55:29;;;;;;;5.72;3.22;;;;;;;;;;4999840;28;100377;-79
2023/07/20 04:57:56;;;;;;;4.03;3.10;;;;;;;;;;4991477;28;100805;-79
2023/07/20 05:00:22;;;;;;;4.07;3.33;;;;;;;;;;4992291;28;98468;-79
2023/07/20 05:02:48;;;;;;;13.48;3.80;;;;;;;;;;5005964;28;100172;-81
2023/07/20 05:05:15;;;;;;;6.68;3.60;;;;;;;;;;4998384;28;102402;-79
2023/07/20 05:07:41;;;;;;;4.93;3.50;;;;;;;;;;5017274;28;98539;-78
2023/07/20 05:10:08;;;;;;;4.68;3.80;;;;;;;;;;5023186;28;99660;-78
2023/07/20 05:12:34;;;;;;;3.70;3.40;;;;;;;;;;5011682;28;99913;-78
2023/07/20 05:15:01;;;;;;;4.32;3.47;;;;;;;;;;5014063;28;98523;-78
2023/07/20 05:17:28;;;;;;;7.22;3.90;;;;;;;;;;5010120;28;103177;-80
2023/07/20 05:19:54;;;;;;;4.53;4.13;;;;;;;;;;5017035;28;98621;-80
2023/07/20 05:22:20;;;;;;;5.50;3.72;;;;;;;;;;5005102;28;100335;-80
2023/07/20 05:24:47;;;;;;;5.72;3.90;;;;;;;;;;5011105;28;100804;-80
2023/07/20 05:27:13;;;;;;;4.05;3.70;;;;;;;;;;5011200;28;97829;-80
2023/07/20 05:29:44;;;;;;;6.40;3.60;;;;;;;;;;5011170;28;98843;-80
2023/07/20 05:32:10;;;;;;;;;;;;;;;;;;5010606;28;100018;-78
2023/07/20 05:34:37;;;;;;;4.80;3.70;;;;;;;;;;5004993;28;116725;-80
2023/07/20 05:37:05;;;;;;;7.28;3.55;;;;;;;;;;5005907;28;99642;-79
2023/07/20 05:39:32;;;;;;;7.65;3.40;;;;;;;;;;5000497;28;99154;-79
2023/07/20 05:41:59;;;;;;;5.10;3.72;;;;;;;;;;4994362;28;100299;-78
2023/07/20 05:44:25;;;;;;;4.40;3.58;;;;;;;;;;5008680;28;100508;-79
2023/07/20 05:46:52;;;;;;;3.88;3.50;;;;;;;;;;4999223;28;98665;-80
2023/07/20 05:49:23;;;;;;;3.33;2.88;;;;;;;;;;4997070;28;100267;-77
2023/07/20 05:51:50;;;;;;;7.22;3.33;;;;;;;;;;5006311;28;99861;-79
2023/07/20 05:54:16;;;;;;;5.90;3.40;;;;;;;;;;5002718;28;98898;-79
2023/07/20 05:56:43;;;;;;;4.00;2.78;;;;;;;;;;5000286;28;99530;-79
2023/07/20 05:59:09;;;;;;;3.65;3.28;;;;;;;;;;4993686;28;101384;-79
2023/07/20 06:01:36;;;;;;;3.65;2.70;;;;;;;;;;5005542;28;104048;-79
2023/07/20 06:04:03;;;;;;;3.63;2.70;;;;;;;;;;5000478;28;102786;-79
2023/07/20 06:06:30;;;;;;;4.53;2.75;;;;;;;;;;4988128;28;99989;-79
2023/07/20 06:08:56;;;;;;;3.92;3.10;;;;;;;;;;5009435;28;99841;-73
2023/07/20 06:11:23;;;;;;;9.15;3.00;;;;;;;;;;5001571;28;100138;-77
2023/07/20 06:13:49;;;;;;;3.17;2.80;;;;;;;;;;4996335;28;98804;-79
2023/07/20 06:16:16;;;;;;;4.07;2.70;;;;;;;;;;4992519;28;99073;-76
2023/07/20 06:18:43;;;;;;;4.68;2.63;;;;;;;;;;4989547;28;99633;-78
2023/07/20 06:21:09;;;;;;;3.47;2.70;;;;;;;;;;4993688;28;98558;-78
2023/07/20 06:23:35;;;;;;;3.97;2.45;;;;;;;;;;4997419;28;101397;-73
2023/07/20 06:26:02;;;;;;;6.40;2.92;;;;;;;;;;5007725;28;98526;-80
2023/07/20 06:28:28;;;;;;;4.50;3.00;;;;;;;;;;5002508;28;100253;-82
2023/07/20 06:31:01;;;;;;;10.93;2.63;;;;;;;;;;5009774;28;100617;-78
2023/07/20 06:33:27;;;;;;;2.70;2.17;;;;;;;;;;5008048;28;98531;-79
2023/07/20 06:35:54;;;;;;;4.05;2.38;;;;;;;;;;5006615;28;102475;-78
2023/07/20 06:38:22;;;;;;;4.47;1.67;;;;;;;;;;5002970;28;103953;-79
2023/07/20 06:40:52;;;;;;;3.78;1.70;;;;;;;;;;5006331;28;97871;-79
2023/07/20 06:43:20;;;;;;;2.20;1.35;;;;;;;;;;5013109;28;98617;-80
2023/07/20 06:45:53;;;;;;;1.80;1.38;;;;;;;;;;5009710;28;99310;-79
2023/07/20 06:48:20;;;;;;;1.30;1.20;;;;;;;;;;4998918;28;99479;-79
2023/07/20 06:50:46;;;;;;;1.48;0.80;;;;;;;;;;5002695;28;100539;-79
2023/07/20 06:53:13;;;;;;;2.22;1.63;;;;;;;;;;5010581;28;98707;-80
2023/07/20 06:55:41;;;;;;;2.35;1.40;;;;;;;;;;5000067;28;100325;-79
2023/07/20 06:58:08;;;;;;;1.48;1.38;;;;;;;;;;5005699;28;100474;-78
2023/07/20 07:00:34;;;;;;;3.58;1.45;;;;;;;;;;5003519;28;98646;-78
2023/07/20 07:03:01;;;;;;;2.55;1.38;;;;;;;;;;5001744;28;100365;-77
2023/07/20 07:05:27;;;;;;;6.07;1.80;;;;;;;;;;5006851;28;99073;-79
2023/07/20 07:08:02;;;;;;;5.18;1.40;;;;;;;;;;4996322;28;98721;-79
2023/07/20 07:10:28;;;;;;;2.15;1.17;;;;;;;;;;5006021;28;100659;-78
2023/07/20 07:12:55;;;;;;;2.65;1.17;;;;;;;;;;5009764;28;99232;-78
2023/07/20 07:15:21;;;;;;;6.47;1.10;;;;;;;;;;5003702;28;100999;-78
2023/07/20 07:17:47;;;;;;;3.80;0.90;;;;;;;;;;4999109;28;103367;-77
2023/07/20 07:20:14;;;;;;;2.35;0.80;;;;;;;;;;5008448;28;98539;-78
2023/07/20 07:22:45;;;;;;;3.10;1.00;;;;;;;;;;5006922;28;99998;-77
2023/07/20 07:25:12;;;;;;;0.63;0.63;;;;;;;;;;4995350;28;100627;-78
2023/07/20 07:27:39;;;;;;;4.25;1.48;;;;;;;;;;5002382;28;99161;-78
2023/07/20 07:30:05;;;;;;;4.38;1.00;;;;;;;;;;4994165;28;99933;-78
2023/07/20 07:32:32;;;;;;;3.20;1.20;;;;;;;;;;5003889;28;98780;-78
2023/07/20 07:34:58;;;;;;;0.77;0.70;;;;;;;;;;4988231;28;99229;-78
2023/07/20 07:37:26;;;;;;;0.73;0.73;;;;;;;;;;4992689;28;99697;-78
2023/07/20 07:39:52;;;;;;;1.50;0.90;;;;;;;;;;5002509;28;98579;-78
2023/07/20 07:42:18;;;;;;;3.60;0.98;;;;;;;;;;4991345;28;99874;-77
2023/07/20 07:44:46;;;;;;;0.80;0.80;;;;;;;;;;4991259;28;100659;-77
2023/07/20 07:47:13;;;;;;;3.45;1.00;;;;;;;;;;5004501;28;98651;-76
2023/07/20 07:49:39;;;;;;;2.40;1.00;;;;;;;;;;5003244;28;99573;-76
2023/07/20 07:52:06;;;;;;;2.42;0.85;;;;;;;;;;5006534;28;98606;-77
2023/07/20 07:54:32;;;;;;;2.03;0.80;;;;;;;;;;5012608;28;100216;-77
2023/07/20 07:56:59;;;;;;;1.80;0.90;;;;;;;;;;5011686;28;99962;-77
2023/07/20 07:59:25;;;;;;;1.67;0.77;;;;;;;;;;5006877;28;100203;-76
2023/07/20 08:01:52;;;;;;;5.78;1.10;;;;;;;;;;4996368;28;101018;-77
2023/07/20 08:04:18;;;;;;;1.48;0.60;;;;;;;;;;5012857;28;100902;-76
2023/07/20 08:06:45;;;;;;;1.85;0.90;;;;;;;;;;5007938;28;98623;-77
2023/07/20 08:09:11;;;;;;;1.42;0.90;;;;;;;;;;4999563;28;99270;-76
2023/07/20 08:11:39;;;;;;;2.92;0.77;;;;;;;;;;5010983;28;98554;-76
2023/07/20 08:14:05;;;;;;;0.75;0.43;;;;;;;;;;4991586;28;100292;-76
2023/07/20 08:16:32;;;;;;;1.30;0.70;;;;;;;;;;4995317;28;99340;-76
2023/07/20 08:18:59;;;;;;;0.68;0.68;;;;;;;;;;5011990;28;97752;-76
2023/07/20 08:21:26;;;;;;;1.73;0.80;;;;;;;;;;5002341;28;99578;-76
2023/07/20 08:23:52;;;;;;;3.55;0.80;;;;;;;;;;4992447;28;99343;-76
2023/07/20 08:26:22;;;;;;;0.63;0.60;;;;;;;;;;4993278;28;100809;-76
2023/07/20 08:28:49;;;;;;;2.15;0.90;;;;;;;;;;4997236;28;100067;-76
2023/07/20 08:31:16;;;;;;;0.85;0.70;;;;;;;;;;4995076;28;99695;-77
2023/07/20 08:33:42;;;;;;;0.63;0.60;;;;;;;;;;4992542;28;99637;-76
2023/07/20 08:36:09;;;;;;;1.42;0.70;;;;;;;;;;5003426;28;99660;-76
2023/07/20 08:38:37;;;;;;;3.38;1.02;;;;;;;;;;4993930;28;98515;-76
2023/07/20 08:41:03;;;;;;;2.95;1.02;;;;;;;;;;4992481;28;99699;-76
2023/07/20 08:43:31;;;;;;;2.75;0.90;;;;;;;;;;5001104;28;98764;-76
2023/07/20 08:45:57;;;;;;;5.25;0.70;;;;;;;;;;4998983;28;98535;-75
2023/07/20 08:48:24;;;;;;;1.27;0.77;;;;;;;;;;5008447;28;100359;-75
2023/07/20 08:50:51;;;;;;;1.00;0.50;;;;;;;;;;5011225;28;100739;-75
2023/07/20 08:53:18;;;;;;;0.63;0.60;;;;;;;;;;5011212;28;98493;-75
2023/07/20 08:55:45;;;;;;;0.43;0.43;;;;;;;;;;4997388;28;99841;-76
2023/07/20 08:58:12;;;;;;;1.92;0.30;;;;;;;;;;4992934;28;98717;-78
2023/07/20 09:00:39;;;;;;;2.05;0.55;;;;;;;;;;4991291;28;99174;-76
2023/07/20 09:03:06;;;;;;;1.42;0.65;;;;;;;;;;4992769;28;99547;-76
2023/07/20 09:05:35;;;;;;;3.50;0.57;;;;;;;;;;4991585;28;98547;-75
2023/07/20 09:08:05;;;;;;;1.55;0.60;;;;;;;;;;5003630;28;100309;-76
2023/07/20 09:10:31;;;;;;;2.85;0.50;;;;;;;;;;4992450;28;100544;-76
2023/07/20 09:12:57;;;;;;;0.73;0.50;;;;;;;;;;4992759;28;98898;-76
2023/07/20 09:15:24;;;;;;;3.03;0.60;;;;;;;;;;4990379;28;100200;-76
2023/07/20 09:17:50;;;;;;;1.90;0.98;;;;;;;;;;4994816;28;98674;-77
2023/07/20 09:20:18;;;;;;;3.30;0.63;;;;;;;;;;5007742;28;100185;-76
2023/07/20 09:22:50;;;;;;;0.50;0.50;;;;;;;;;;5002538;28;100253;-76
2023/07/20 09:25:17;;;;;;;2.13;0.82;;;;;;;;;;4993960;28;100603;-76
2023/07/20 09:27:45;;;;;;;1.95;0.40;;;;;;;;;;5005690;28;99213;-76
2023/07/20 09:30:13;;;;;;;1.90;0.57;;;;;;;;;;4991092;28;98988;-76
2023/07/20 09:32:45;;;;;;;0.47;0.47;;;;;;;;;;4991187;28;97758;-76
2023/07/20 09:35:21;;;;;;;1.17;0.50;;;;;;;;;;5012466;28;100711;-76
2023/07/20 09:37:54;;;;;;;0.60;0.60;;;;;;;;;;5002925;28;99729;-77
2023/07/20 09:40:41;;;;;;;0.60;0.40;;;;;;;;;;5005581;28;100888;-77
2023/07/20 09:43:11;;;;;;;0.40;0.40;;;;;;;;;;4995678;28;102329;-77
2023/07/20 09:45:43;;;;;;;2.60;0.30;;;;;;;;;;4997001;28;99516;-77
2023/07/20 09:48:15;;;;;;;2.92;0.52;;;;;;;;;;5011613;28;101261;-77
2023/07/20 09:50:51;;;;;;;0.38;0.38;;;;;;;;;;5008802;28;100181;-77
2023/07/20 09:53:18;;;;;;;0.93;0.60;;;;;;;;;;5003647;28;100029;-77
2023/07/20 09:55:48;;;;;;;0.82;0.50;;;;;;;;;;4993194;28;100506;-77
2023/07/20 09:58:15;;;;;;;0.80;0.70;;;;;;;;;;5003795;28;99836;-77
2023/07/20 10:00:47;;;;;;;0.90;0.60;;;;;;;;;;5009694;28;99910;-77
2023/07/20 10:03:18;;;;;;;3.53;0.52;;;;;;;;;;4995469;28;100185;-77
2023/07/20 10:05:47;;;;;;;1.08;0.55;;;;;;;;;;5006523;28;99423;-76
2023/07/20 10:08:16;;;;;;;0.95;0.60;;;;;;;;;;4994962;28;100084;-77
2023/07/20 10:10:46;;;;;;;1.17;0.47;;;;;;;;;;5007781;28;100172;-77
2023/07/20 10:13:33;;;;;;;2.08;0.65;;;;;;;;;;5001455;28;100239;-77
2023/07/20 10:16:09;;;;;;;21.00;1.48;;;;;;;;;;4989407;28;100483;-77
2023/07/20 10:18:55;;;;;;;0.65;0.45;;;;;;;;;;4999689;28;100579;-75
2023/07/20 10:21:24;;;;;;;2.88;0.50;;;;;;;;;;5004316;28;99286;-76
2023/07/20 10:23:55;;;;;;;1.17;0.45;;;;;;;;;;4993755;28;99431;-75
2023/07/20 10:26:24;;;;;;;0.60;0.60;;;;;;;;;;5010272;28;98567;-76
2023/07/20 10:28:51;;;;;;;0.30;0.30;;;;;;;;;;4993107;28;99163;-76
2023/07/20 10:31:18;;;;;;;0.40;0.40;;;;;;;;;;4987624;28;100415;-77
2023/07/20 10:33:45;;;;;;;0.55;0.50;;;;;;;;;;5001548;28;98601;-75
2023/07/20 10:36:12;;;;;;;0.57;0.30;;;;;;;;;;4990524;28;99489;-76
2023/07/20 10:38:45;;;;;;;0.82;0.60;;;;;;;;;;4998600;28;99532;-75
2023/07/20 10:41:18;;;;;;;0.45;0.40;;;;;;;;;;5002521;28;98641;-75
2023/07/20 10:43:46;;;;;;;0.30;0.30;;;;;;;;;;5006594;28;99376;-76
2023/07/20 10:46:12;;;;;;;1.48;0.50;;;;;;;;;;4992253;28;98523;-75
2023/07/20 10:48:58;;;;;;;0.73;0.45;;;;;;;;;;5007348;28;99445;-75
2023/07/20 10:51:24;;;;;;;0.82;0.20;;;;;;;;;;4997457;28;99786;-75
2023/07/20 10:53:56;;;;;;;1.33;0.40;;;;;;;;;;4994731;28;99405;-75
2023/07/20 10:56:25;;;;;;;4.05;0.55;;;;;;;;;;5000362;28;99756;-75
2023/07/20 10:58:56;;;;;;;0.38;0.38;;;;;;;;;;4991509;28;98625;-75
2023/07/20 11:01:27;;;;;;;0.60;0.60;;;;;;;;;;5004250;28;99089;-75
2023/07/20 11:03:57;;;;;;;5.47;0.63;;;;;;;;;;4993026;28;99267;-75
2023/07/20 11:06:23;;;;;;;0.40;0.40;;;;;;;;;;4991192;28;99473;-75
2023/07/20 11:08:57;;;;;;;1.70;0.50;;;;;;;;;;4991489;28;100476;-75
2023/07/20 11:11:27;;;;;;;2.00;0.60;;;;;;;;;;5004613;28;100400;-75
2023/07/20 11:14:01;;;;;;;1.33;0.60;;;;;;;;;;5006704;28;98081;-75
2023/07/20 11:16:34;;;;;;;2.00;0.55;;;;;;;;;;5002747;28;100256;-75
2023/07/20 11:19:02;;;;;;;0.70;0.70;;;;;;;;;;4988953;28;99523;-75
2023/07/20 11:21:29;;;;;;;0.30;0.30;;;;;;;;;;4992402;28;99347;-75
2023/07/20 11:23:56;;;;;;;0.40;0.40;;;;;;;;;;5000335;28;100050;-75
2023/07/20 11:26:22;;;;;;;0.65;0.30;;;;;;;;;;5009132;28;99496;-75
2023/07/20 11:28:49;;;;;;;5.10;0.30;;;;;;;;;;5012964;28;99475;-75
2023/07/20 11:31:16;;;;;;;1.23;0.60;;;;;;;;;;5011169;28;99555;-76
2023/07/20 11:33:42;;;;;;;0.30;0.30;;;;;;;;;;5011004;28;98715;-76
2023/07/20 11:36:09;;;;;;;0.98;0.40;;;;;;;;;;4992250;28;99265;-76
2023/07/20 11:38:41;;;;;;;1.60;0.30;;;;;;;;;;4995778;28;98722;-76
2023/07/20 11:41:08;;;;;;;1.27;0.50;;;;;;;;;;4993058;28;98530;-76
2023/07/20 11:43:37;;;;;;;0.65;0.50;;;;;;;;;;4994544;28;99344;-76
2023/07/20 11:46:04;;;;;;;9.70;1.10;;;;;;;;;;5004061;28;101920;-76
2023/07/20 11:48:31;;;;;;;4.10;0.60;;;;;;;;;;5007633;28;99299;-76
2023/07/20 11:50:57;;;;;;;5.15;1.73;;;;;;;;;;5012181;28;99570;-76
2023/07/20 11:53:24;;;;;;;3.83;0.90;;;;;;;;;;4994550;28;98502;-76
2023/07/20 11:55:51;;;;;;;12.88;1.20;;;;;;;;;;4997346;28;99390;-76
2023/07/20 11:58:17;;;;;;;3.00;0.98;;;;;;;;;;5001318;28;99600;-76
2023/07/20 12:00:44;;;;;;;2.38;0.60;;;;;;;;;;4992817;28;98487;-76
2023/07/20 12:03:12;;;;;;;2.47;0.52;;;;;;;;;;4992397;28;99132;-76
2023/07/20 12:05:39;;;;;;;6.13;1.98;;;;;;;;;;5010862;28;99509;-76
2023/07/20 12:08:25;;;;;;;3.83;1.25;;;;;;;;;;5010565;28;98817;-76
2023/07/20 12:10:51;;;;;;;2.88;0.57;;;;;;;;;;5014782;28;99517;-76
2023/07/20 12:13:18;;;;;;;5.28;1.05;;;;;;;;;;4999267;28;98886;-76
2023/07/20 12:15:44;;;;;;;5.32;0.77;;;;;;;;;;4990986;28;99166;-76
2023/07/20 12:18:10;;;;;;;2.60;0.82;;;;;;;;;;5006391;28;100013;-76
2023/07/20 12:20:38;;;;;;;6.13;1.10;;;;;;;;;;4995612;28;99433;-75
2023/07/20 12:23:14;;;;;;;5.05;2.10;;;;;;;;;;4991784;28;99227;-75
2023/07/20 12:25:42;;;;;;;1.05;0.85;;;;;;;;;;5003662;28;99858;-75
2023/07/20 12:28:09;;;;;;;2.47;0.50;;;;;;;;;;5011581;28;97978;-76
2023/07/20 12:30:36;;;;;;;3.58;0.63;;;;;;;;;;5010089;28;98587;-75
2023/07/20 12:33:04;;;;;;;7.65;0.85;;;;;;;;;;5004052;28;100077;-75
2023/07/20 12:35:31;;;;;;;2.50;0.90;;;;;;;;;;5001745;28;99352;-75
2023/07/20 12:37:58;;;;;;;1.33;0.68;;;;;;;;;;5008804;28;99566;-75
2023/07/20 12:40:24;;;;;;;3.30;0.57;;;;;;;;;;5006526;28;98522;-75
2023/07/20 12:42:51;;;;;;;3.15;0.50;;;;;;;;;;4990533;28;100277;-75
2023/07/20 12:45:17;;;;;;;0.73;0.50;;;;;;;;;;5003197;28;101064;-75
2023/07/20 12:47:43;;;;;;;0.88;0.60;;;;;;;;;;5012611;28;98503;-75
2023/07/20 12:50:10;;;;;;;4.20;0.85;;;;;;;;;;5011572;28;99220;-75
2023/07/20 12:52:40;;;;;;;2.05;0.70;;;;;;;;;;5005264;28;98713;-75
2023/07/20 12:55:07;;;;;;;0.85;0.63;;;;;;;;;;5001361;28;98614;-75
2023/07/20 12:57:35;;;;;;;0.70;0.70;;;;;;;;;;5011329;28;99932;-75
2023/07/20 13:00:05;;;;;;;2.22;0.70;;;;;;;;;;5010666;28;99191;-76
2023/07/20 13:02:32;;;;;;;1.27;0.60;;;;;;;;;;4999085;28;100090;-76
2023/07/20 13:04:59;;;;;;;1.73;0.63;;;;;;;;;;4995526;28;99536;-76
2023/07/20 13:07:31;;;;;;;3.65;0.63;;;;;;;;;;5002730;28;100264;-76
2023/07/20 13:10:01;;;;;;;0.73;0.70;;;;;;;;;;5009328;28;98959;-76
2023/07/20 13:12:28;;;;;;;2.85;0.85;;;;;;;;;;5007093;28;99437;-76
2023/07/20 13:14:56;;;;;;;3.20;1.13;;;;;;;;;;5014906;28;98631;-76
2023/07/20 13:17:22;;;;;;;2.35;0.70;;;;;;;;;;5012119;28;99232;-76
2023/07/20 13:19:49;;;;;;;4.82;1.05;;;;;;;;;;4995590;28;98622;-76
2023/07/20 13:22:15;;;;;;;1.70;0.60;;;;;;;;;;5007581;28;100253;-76
2023/07/20 13:24:44;;;;;;;1.08;0.65;;;;;;;;;;5009776;28;101416;-76
2023/07/20 13:27:10;;;;;;;0.50;0.50;;;;;;;;;;5010901;28;98517;-76
2023/07/20 13:29:37;;;;;;;0.93;0.40;;;;;;;;;;5011230;28;99330;-76
2023/07/20 13:32:06;;;;;;;2.95;0.60;;;;;;;;;;4994284;28;99476;-76
2023/07/20 13:34:33;;;;;;;1.53;0.67;;;;;;;;;;4989172;28;98667;-76
2023/07/20 13:36:59;;;;;;;3.45;0.70;;;;;;;;;;4992502;28;99117;-76
2023/07/20 13:39:27;;;;;;;1.27;0.68;;;;;;;;;;4989675;28;98715;-76
2023/07/20 13:41:54;;;;;;;0.63;0.63;;;;;;;;;;4991440;28;99282;-76
2023/07/20 13:44:20;;;;;;;2.38;1.13;;;;;;;;;;5006675;28;99596;-77
2023/07/20 13:46:48;;;;;;;0.70;0.70;;;;;;;;;;5007014;28;98560;-76
2023/07/20 13:49:15;;;;;;;4.35;0.98;;;;;;;;;;5008329;28;99486;-76
2023/07/20 13:51:49;;;;;;;1.77;0.77;;;;;;;;;;4994558;28;99473;-76
2023/07/20 13:54:35;;;;;;;2.95;0.90;;;;;;;;;;5002881;28;98735;-76
2023/07/20 13:57:02;;;;;;;1.80;0.60;;;;;;;;;;5009574;28;99169;-76
2023/07/20 13:59:28;;;;;;;0.55;0.52;;;;;;;;;;5011481;28;99613;-75
2023/07/20 14:01:55;;;;;;;1.33;0.90;;;;;;;;;;4995629;28;99343;-76
2023/07/20 14:04:24;;;;;;;1.17;0.70;;;;;;;;;;4997145;28;99416;-76
2023/07/20 14:06:51;;;;;;;2.08;0.77;;;;;;;;;;4991570;28;97952;-76
2023/07/20 14:09:18;;;;;;;3.60;1.00;;;;;;;;;;4989701;28;98521;-76
2023/07/20 14:11:44;;;;;;;0.68;0.68;;;;;;;;;;4993808;28;100550;-75
2023/07/20 14:14:14;;;;;;;4.17;1.00;;;;;;;;;;4988416;28;99315;-76
2023/07/20 14:16:40;;;;;;;6.60;0.80;;;;;;;;;;4995160;28;99852;-76
2023/07/20 14:19:07;;;;;;;2.53;1.08;;;;;;;;;;4993127;28;99482;-75
2023/07/20 14:21:33;;;;;;;0.70;0.70;;;;;;;;;;5001302;28;98481;-75
2023/07/20 14:23:59;;;;;;;3.67;0.77;;;;;;;;;;5006946;28;99450;-74
2023/07/20 14:26:27;;;;;;;1.67;0.70;;;;;;;;;;5007239;28;98636;-74
2023/07/20 14:28:54;;;;;;;1.50;0.63;;;;;;;;;;4994478;28;99420;-73
2023/07/20 14:31:20;;;;;;;1.17;0.60;;;;;;;;;;4948629;28;1156801;-74
2023/07/20 14:33:47;;;;;;;11.00;1.50;;;;;;;;;;5005867;28;98760;-74
2023/07/20 14:36:13;;;;;;;2.40;0.75;;;;;;;;;;5002439;28;99165;-75
2023/07/20 14:38:40;;;;;;;11.35;1.35;;;;;;;;;;4989028;28;100272;-75
2023/07/20 14:41:07;;;;;;;2.30;0.50;;;;;;;;;;4990392;28;98701;-74